createdAt,value
2022-09-14T00:02:14.264Z,11.78
2022-09-14T00:04:47.186Z,11.80
2022-09-14T00:07:20.407Z,11.82
2022-09-14T00:09:54.856Z,11.84
2022-09-14T00:12:27.523Z,11.89
2022-09-14T00:15:00.224Z,11.91
2022-09-14T00:17:33.466Z,11.92
2022-09-14T00:20:08.167Z,11.91
2022-09-14T00:22:40.908Z,11.93
2022-09-14T00:25:13.841Z,11.92
2022-09-14T00:27:46.810Z,11.92
2022-09-14T00:30:20.320Z,11.93
2022-09-14T00:32:53.758Z,11.92
2022-09-14T00:35:26.558Z,11.94
2022-09-14T00:37:59.406Z,11.99
2022-09-14T00:40:32.569Z,11.98
2022-09-14T00:43:08.997Z,11.94
2022-09-14T00:45:41.937Z,11.89
2022-09-14T00:48:14.947Z,11.84
2022-09-14T00:50:48.133Z,11.83
2022-09-14T00:53:21.415Z,11.80
2022-09-14T00:55:54.578Z,11.76
2022-09-14T00:58:29.231Z,11.70
2022-09-14T01:01:51.602Z,11.62
2022-09-14T01:04:24.822Z,11.56
2022-09-14T01:07:25.160Z,11.51
2022-09-14T01:10:17.884Z,11.47
2022-09-14T01:13:29.346Z,11.47
2022-09-14T01:16:37.368Z,11.47
2022-09-14T01:19:26.875Z,11.45
2022-09-14T01:22:04.795Z,11.41
2022-09-14T01:24:48.103Z,11.35
2022-09-14T01:27:41.988Z,11.32
2022-09-14T01:30:20.644Z,11.28
2022-09-14T01:33:07.059Z,11.27
2022-09-14T01:35:59.060Z,11.29
2022-09-14T01:38:53.017Z,11.26
2022-09-14T01:41:29.728Z,11.18
2022-09-14T01:44:16.581Z,11.15
2022-09-14T01:46:54.269Z,11.12
2022-09-14T01:49:41.371Z,11.07
2022-09-14T01:52:22.075Z,11.05
2022-09-14T01:55:05.043Z,11.07
2022-09-14T01:57:48.882Z,11.09
2022-09-14T02:00:23.285Z,11.09
2022-09-14T02:02:58.866Z,11.05
2022-09-14T02:05:47.769Z,11.04
2022-09-14T02:08:20.713Z,11.01
2022-09-14T02:10:53.457Z,11.04
2022-09-14T02:13:27.496Z,11.09
2022-09-14T02:16:00.461Z,11.12
2022-09-14T02:18:34.645Z,11.11
2022-09-14T02:21:19.974Z,11.11
2022-09-14T02:23:53.229Z,11.12
2022-09-14T02:26:26.265Z,11.12
2022-09-14T02:28:59.741Z,11.15
2022-09-14T02:32:02.501Z,11.21
2022-09-14T02:34:52.127Z,11.29
2022-09-14T02:38:02.928Z,11.33
2022-09-14T02:40:41.130Z,11.36
2022-09-14T02:43:57.788Z,11.38
2022-09-14T02:46:55.917Z,11.39
2022-09-14T02:49:46.410Z,11.39
2022-09-14T02:52:35.140Z,11.40
2022-09-14T02:55:14.464Z,11.43
2022-09-14T02:58:10.544Z,11.40
2022-09-14T03:00:47.645Z,11.40
2022-09-14T03:03:22.651Z,11.39
2022-09-14T03:05:57.501Z,11.39
2022-09-14T03:08:32.540Z,11.41
2022-09-14T03:11:07.131Z,11.45
2022-09-14T03:13:40.365Z,11.47
2022-09-14T03:16:16.860Z,11.47
2022-09-14T03:18:50.303Z,11.49
2022-09-14T03:21:23.103Z,11.53
2022-09-14T03:23:57.674Z,11.61
2022-09-14T03:26:30.846Z,11.65
2022-09-14T03:29:04.463Z,11.67
2022-09-14T03:31:38.309Z,11.67
2022-09-14T03:34:13.069Z,11.67
2022-09-14T03:36:45.774Z,11.72
2022-09-14T03:39:19.002Z,11.75
2022-09-14T03:41:52.012Z,11.79
2022-09-14T03:44:24.657Z,11.85
2022-09-14T03:46:57.567Z,11.91
2022-09-14T03:49:30.504Z,11.94
2022-09-14T03:52:04.837Z,11.97
2022-09-14T03:54:37.641Z,12.01
2022-09-14T03:57:11.202Z,12.04
2022-09-14T03:59:44.100Z,12.02
2022-09-14T04:02:16.862Z,12.05
2022-09-14T04:04:49.840Z,12.07
2022-09-14T04:07:22.931Z,12.08
2022-09-14T04:09:56.581Z,12.09
2022-09-14T04:12:29.786Z,12.11
2022-09-14T04:15:02.886Z,12.16
2022-09-14T04:17:36.374Z,12.19
2022-09-14T04:20:10.394Z,12.21
2022-09-14T04:22:42.575Z,12.25
2022-09-14T04:25:15.633Z,12.30
2022-09-14T04:27:59.061Z,12.34
2022-09-14T04:30:22.895Z,12.34
2022-09-14T04:32:56.408Z,12.36
2022-09-14T04:35:29.036Z,12.39
2022-09-14T04:38:01.923Z,12.39
2022-09-14T04:40:35.086Z,12.43
2022-09-14T04:43:08.126Z,12.46
2022-09-14T04:45:41.233Z,12.46
2022-09-14T04:48:14.120Z,12.46
2022-09-14T04:50:47.573Z,12.45
2022-09-14T04:53:22.136Z,12.45
2022-09-14T04:55:54.862Z,12.42
2022-09-14T04:58:28.840Z,12.43
2022-09-14T05:01:09.465Z,12.46
2022-09-14T05:03:44.206Z,12.46
2022-09-14T05:06:24.062Z,12.47
2022-09-14T05:08:59.307Z,12.49
2022-09-14T05:11:35.211Z,12.55
2022-09-14T05:14:08.015Z,12.57
2022-09-14T05:16:42.292Z,12.59
2022-09-14T05:19:18.483Z,12.58
2022-09-14T05:21:51.382Z,12.56
2022-09-14T05:24:24.302Z,12.58
2022-09-14T05:27:00.981Z,12.60
2022-09-14T05:29:32.166Z,12.57
2022-09-14T05:32:06.266Z,12.58
2022-09-14T05:34:40.069Z,12.61
2022-09-14T05:37:14.462Z,12.70
2022-09-14T05:39:47.362Z,12.74
2022-09-14T05:42:20.602Z,12.80
2022-09-14T05:44:53.853Z,12.84
2022-09-14T05:47:26.745Z,12.90
2022-09-14T05:49:59.936Z,12.93
2022-09-14T05:52:32.922Z,12.93
2022-09-14T05:55:07.351Z,12.95
2022-09-14T05:57:39.593Z,12.97
2022-09-14T06:00:13.735Z,12.96
2022-09-14T06:02:51.841Z,12.94
2022-09-14T06:05:26.543Z,12.94
2022-09-14T06:08:01.949Z,12.92
2022-09-14T06:10:35.850Z,12.92
2022-09-14T06:13:09.378Z,12.98
2022-09-14T06:15:42.102Z,13.04
2022-09-14T06:18:15.749Z,13.07
2022-09-14T06:20:53.587Z,13.10
2022-09-14T06:23:27.828Z,13.10
2022-09-14T06:26:02.721Z,13.08
2022-09-14T06:28:36.958Z,13.05
2022-09-14T06:31:11.604Z,13.06
2022-09-14T06:33:48.569Z,13.05
2022-09-14T06:36:24.625Z,13.05
2022-09-14T06:38:58.048Z,13.08
2022-09-14T06:41:32.647Z,13.15
2022-09-14T06:44:05.735Z,13.23
2022-09-14T06:46:38.776Z,13.30
2022-09-14T06:49:16.885Z,13.36
2022-09-14T06:51:50.948Z,13.41
2022-09-14T06:54:24.208Z,13.48
2022-09-14T06:56:59.043Z,13.56
2022-09-14T06:59:31.888Z,13.67
2022-09-14T07:02:04.926Z,13.75
2022-09-14T07:04:38.846Z,13.82
2022-09-14T07:07:11.841Z,13.87
2022-09-14T07:09:46.429Z,13.88
2022-09-14T07:12:19.177Z,13.89
2022-09-14T07:14:52.128Z,13.88
2022-09-14T07:17:25.118Z,13.89
2022-09-14T07:19:58.174Z,13.92
2022-09-14T07:22:32.731Z,14.00
2022-09-14T07:25:06.722Z,14.11
2022-09-14T07:27:40.406Z,14.15
2022-09-14T07:30:13.553Z,14.18
2022-09-14T07:32:46.530Z,14.21
2022-09-14T07:35:19.303Z,14.25
2022-09-14T07:37:51.905Z,14.26
2022-09-14T07:40:24.851Z,14.25
2022-09-14T07:42:57.877Z,14.23
2022-09-14T07:45:31.803Z,14.24
2022-09-14T07:48:05.725Z,14.19
2022-09-14T07:50:38.870Z,14.16
2022-09-14T07:53:11.702Z,14.15
2022-09-14T07:55:44.660Z,14.15
2022-09-14T07:58:17.534Z,14.15
2022-09-14T08:00:50.381Z,14.22
2022-09-14T08:03:23.958Z,14.33
2022-09-14T08:06:10.990Z,14.36
2022-09-14T08:08:46.468Z,14.33
2022-09-14T08:11:25.269Z,14.29
2022-09-14T08:14:01.557Z,14.27
2022-09-14T08:16:36.136Z,14.26
2022-09-14T08:19:15.852Z,14.24
2022-09-14T08:21:48.206Z,14.23
2022-09-14T08:24:22.931Z,14.23
2022-09-14T08:26:55.622Z,14.21
2022-09-14T08:29:27.835Z,14.17
2022-09-14T08:31:59.993Z,14.17
2022-09-14T08:34:32.693Z,14.14
2022-09-14T08:37:05.080Z,14.14
2022-09-14T08:39:37.294Z,14.10
2022-09-14T08:42:13.915Z,14.09
2022-09-14T08:44:58.681Z,14.06
2022-09-14T08:47:34.782Z,14.05
2022-09-14T08:50:17.790Z,14.08
2022-09-14T08:52:53.816Z,14.11
2022-09-14T08:55:43.957Z,14.15
2022-09-14T08:58:56.414Z,14.20
2022-09-14T09:02:08.113Z,14.21
2022-09-14T09:04:53.624Z,14.23
2022-09-14T09:07:35.730Z,14.24
2022-09-14T09:10:10.290Z,14.25
2022-09-14T09:12:49.717Z,14.24
2022-09-14T09:15:28.773Z,14.27
2022-09-14T09:18:23.536Z,14.36
2022-09-14T09:21:02.718Z,14.44
2022-09-14T09:23:35.711Z,14.47
2022-09-14T09:26:12.508Z,14.42
2022-09-14T09:28:59.329Z,14.35
2022-09-14T09:31:47.788Z,14.30
2022-09-14T09:34:30.980Z,14.24
2022-09-14T09:37:23.580Z,14.17
2022-09-14T09:39:56.988Z,14.06
2022-09-14T09:42:30.396Z,14.03
2022-09-14T09:45:07.974Z,14.02
2022-09-14T09:47:43.176Z,14.06
2022-09-14T09:50:21.648Z,14.13
2022-09-14T09:53:04.517Z,14.21
2022-09-14T09:55:40.406Z,14.27
2022-09-14T09:58:38.935Z,14.33
2022-09-14T10:01:36.286Z,14.38
2022-09-14T10:04:22.572Z,14.46
2022-09-14T10:06:58.098Z,14.49
2022-09-14T10:09:31.037Z,14.55
2022-09-14T10:12:06.099Z,14.59
2022-09-14T10:14:40.829Z,14.61
2022-09-14T10:17:20.459Z,14.64
2022-09-14T10:19:56.306Z,14.68
2022-09-14T10:22:35.487Z,14.69
2022-09-14T10:25:22.542Z,14.67
2022-09-14T10:28:01.428Z,14.67
2022-09-14T10:30:42.571Z,14.68
2022-09-14T10:33:17.868Z,14.71
2022-09-14T10:36:15.992Z,14.76
2022-09-14T10:39:16.457Z,14.84
2022-09-14T10:42:02.398Z,14.92
2022-09-14T10:45:17.700Z,15.01
2022-09-14T10:48:10.038Z,15.15
2022-09-14T10:51:19.091Z,15.17
2022-09-14T10:54:19.659Z,15.23
2022-09-14T10:57:21.628Z,15.31
2022-09-14T11:00:15.659Z,15.33
2022-09-14T11:02:55.998Z,15.26
2022-09-14T11:05:47.862Z,15.19
2022-09-14T11:08:48.175Z,15.16
2022-09-14T11:11:40.880Z,15.11
2022-09-14T11:14:24.367Z,15.05
2022-09-14T11:17:51.892Z,15.03
2022-09-14T11:20:42.859Z,15.02
2022-09-14T11:23:20.421Z,15.00
2022-09-14T11:26:16.591Z,14.97
2022-09-14T11:28:56.426Z,14.92
2022-09-14T11:31:33.382Z,14.92
2022-09-14T11:34:32.641Z,14.97
2022-09-14T11:37:15.739Z,15.04
2022-09-14T11:40:10.100Z,15.09
2022-09-14T11:42:50.691Z,15.10
2022-09-14T11:45:30.765Z,15.09
2022-09-14T11:48:41.830Z,15.08
2022-09-14T11:50:59.437Z,15.10
2022-09-14T11:53:33.850Z,15.13
2022-09-14T11:56:07.015Z,15.19
2022-09-14T11:58:39.985Z,15.26
2022-09-14T12:01:35.947Z,15.35
2022-09-14T12:04:13.105Z,15.44
2022-09-14T12:06:50.792Z,15.51
2022-09-14T12:09:28.252Z,15.61
2022-09-14T12:12:03.595Z,15.69
2022-09-14T12:14:41.037Z,15.75
2022-09-14T12:17:45.705Z,15.78
2022-09-14T12:20:41.543Z,15.77
2022-09-14T12:23:27.816Z,15.75
2022-09-14T12:26:08.708Z,15.73
2022-09-14T12:28:50.777Z,15.74
2022-09-14T12:31:49.336Z,15.74
2022-09-14T12:34:25.080Z,15.73
2022-09-14T12:37:08.729Z,15.74
2022-09-14T12:39:39.735Z,15.77
2022-09-14T12:42:32.487Z,15.79
2022-09-14T12:45:42.846Z,15.82
2022-09-14T12:48:49.191Z,15.82
2022-09-14T12:51:33.019Z,15.81
2022-09-14T12:54:39.565Z,15.77
2022-09-14T12:57:32.578Z,15.70
2022-09-14T13:00:18.026Z,15.62
2022-09-14T13:03:14.244Z,15.54
2022-09-14T13:05:48.066Z,15.46
2022-09-14T13:08:24.303Z,15.42
2022-09-14T13:10:57.461Z,15.35
2022-09-14T13:13:34.636Z,15.31
2022-09-14T13:16:08.661Z,15.28
2022-09-14T13:18:41.913Z,15.25
2022-09-14T13:21:25.941Z,15.22
2022-09-14T13:23:59.270Z,15.20
2022-09-14T13:26:34.408Z,15.22
2022-09-14T13:29:09.417Z,15.24
2022-09-14T13:31:42.638Z,15.25
2022-09-14T13:34:28.161Z,15.25
2022-09-14T13:37:02.193Z,15.24
2022-09-14T13:39:38.606Z,15.22
2022-09-14T13:42:12.561Z,15.19
2022-09-14T13:44:47.125Z,15.16
2022-09-14T13:47:23.878Z,15.16
2022-09-14T13:49:56.952Z,15.16
2022-09-14T13:52:59.847Z,15.17
2022-09-14T13:55:35.056Z,15.17
2022-09-14T13:58:24.082Z,15.19
2022-09-14T14:01:04.786Z,15.20
2022-09-14T14:03:49.412Z,15.20
2022-09-14T14:06:38.254Z,15.22
2022-09-14T14:09:13.291Z,15.26
2022-09-14T14:11:49.515Z,15.32
2022-09-14T14:14:30.807Z,15.39
2022-09-14T14:17:29.172Z,15.44
2022-09-14T14:20:23.819Z,15.46
2022-09-14T14:23:13.330Z,15.48
2022-09-14T14:25:54.405Z,15.45
2022-09-14T14:28:30.980Z,15.43
2022-09-14T14:31:08.712Z,15.42
2022-09-14T14:33:51.303Z,15.42
2022-09-14T14:36:24.224Z,15.44
2022-09-14T14:38:58.767Z,15.45
2022-09-14T14:41:31.935Z,15.46
2022-09-14T14:44:05.371Z,15.46
2022-09-14T14:46:38.828Z,15.46
2022-09-14T14:49:14.989Z,15.48
2022-09-14T14:51:48.398Z,15.54
2022-09-14T14:54:21.636Z,15.59
2022-09-14T14:56:54.445Z,15.64
2022-09-14T14:59:32.942Z,15.69
2022-09-14T15:02:07.224Z,15.70
2022-09-14T15:04:41.122Z,15.69
2022-09-14T15:07:14.845Z,15.65
2022-09-14T15:09:48.083Z,15.61
2022-09-14T15:12:22.303Z,15.56
2022-09-14T15:14:59.097Z,15.51
2022-09-14T15:17:31.495Z,15.48
2022-09-14T15:20:06.833Z,15.45
2022-09-14T15:22:42.076Z,15.42
2022-09-14T15:25:16.947Z,15.35
2022-09-14T15:27:50.612Z,15.29
2022-09-14T15:30:24.181Z,15.23
2022-09-14T15:32:57.331Z,15.17
2022-09-14T15:35:30.229Z,15.12
2022-09-14T15:38:04.054Z,15.08
2022-09-14T15:40:38.367Z,15.04
2022-09-14T15:43:11.311Z,14.98
2022-09-14T15:45:45.602Z,14.94
2022-09-14T15:48:19.211Z,14.87
2022-09-14T15:50:51.718Z,14.82
2022-09-14T15:53:24.948Z,14.76
2022-09-14T15:55:58.994Z,14.73
2022-09-14T15:58:32.972Z,14.71
2022-09-14T16:01:13.676Z,14.71
2022-09-14T16:03:47.573Z,14.68
2022-09-14T16:06:22.254Z,14.66
2022-09-14T16:08:56.409Z,14.62
2022-09-14T16:11:29.636Z,14.58
2022-09-14T16:14:05.818Z,14.57
2022-09-14T16:16:40.202Z,14.56
2022-09-14T16:19:17.664Z,14.54
2022-09-14T16:21:53.697Z,14.53
2022-09-14T16:24:27.089Z,14.48
2022-09-14T16:27:00.395Z,14.43
2022-09-14T16:29:34.407Z,14.37
2022-09-14T16:32:07.601Z,14.31
2022-09-14T16:34:40.786Z,14.26
2022-09-14T16:37:13.418Z,14.23
2022-09-14T16:39:49.472Z,14.18
2022-09-14T16:42:22.375Z,14.15
2022-09-14T16:44:56.130Z,14.10
2022-09-14T16:47:29.562Z,14.09
2022-09-14T16:50:02.556Z,14.08
2022-09-14T16:52:35.802Z,14.05
2022-09-14T16:55:09.792Z,14.02
2022-09-14T16:57:42.710Z,13.99
2022-09-14T17:00:16.843Z,13.98
2022-09-14T17:02:54.235Z,13.93
2022-09-14T17:05:27.903Z,13.89
2022-09-14T17:08:03.201Z,13.85
2022-09-14T17:10:38.176Z,13.83
2022-09-14T17:13:11.912Z,13.80
2022-09-14T17:15:45.222Z,13.79
2022-09-14T17:18:19.758Z,13.75
2022-09-14T17:21:02.471Z,13.67
2022-09-14T17:23:36.393Z,13.60
2022-09-14T17:26:12.815Z,13.55
2022-09-14T17:28:47.721Z,13.54
2022-09-14T17:31:25.310Z,13.54
2022-09-14T17:34:00.845Z,13.57
2022-09-14T17:36:35.380Z,13.59
2022-09-14T17:39:12.037Z,13.60
2022-09-14T17:41:44.734Z,13.61
2022-09-14T17:44:19.760Z,13.60
2022-09-14T17:46:53.457Z,13.62
2022-09-14T17:49:27.290Z,13.63
2022-09-14T17:52:02.517Z,13.64
2022-09-14T17:54:38.068Z,13.67
2022-09-14T17:57:12.015Z,13.69
2022-09-14T17:59:45.094Z,13.69
2022-09-14T18:02:18.758Z,13.69
2022-09-14T18:04:53.793Z,13.70
2022-09-14T18:07:27.665Z,13.72
2022-09-14T18:10:02.138Z,13.74
2022-09-14T18:12:40.112Z,13.78
2022-09-14T18:15:15.395Z,13.79
2022-09-14T18:17:51.442Z,13.80
2022-09-14T18:20:25.024Z,13.81
2022-09-14T18:22:58.728Z,13.82
2022-09-14T18:25:32.636Z,13.84
2022-09-14T18:28:06.239Z,13.88
2022-09-14T18:30:43.520Z,13.89
2022-09-14T18:33:14.896Z,13.90
2022-09-14T18:35:48.674Z,13.89
2022-09-14T18:38:22.004Z,13.89
2022-09-14T18:40:56.796Z,13.89
2022-09-14T18:43:30.615Z,13.88
2022-09-14T18:46:09.068Z,13.88
2022-09-14T18:48:45.516Z,13.91
2022-09-14T18:51:19.392Z,13.90
2022-09-14T18:53:59.799Z,13.89
2022-09-14T18:56:34.472Z,13.89
2022-09-14T18:59:09.988Z,13.90
2022-09-14T19:01:44.609Z,13.93
2022-09-14T19:04:18.984Z,13.97
2022-09-14T19:06:52.687Z,13.98
2022-09-14T19:09:26.578Z,13.99
2022-09-14T19:11:59.859Z,13.99
2022-09-14T19:14:33.574Z,13.99
2022-09-14T19:17:07.401Z,14.00
2022-09-14T19:19:40.984Z,14.03
2022-09-14T19:22:14.701Z,14.06
2022-09-14T19:24:47.966Z,14.07
2022-09-14T19:27:20.996Z,14.08
2022-09-14T19:29:54.918Z,14.07
2022-09-14T19:32:27.799Z,14.02
2022-09-14T19:35:01.294Z,14.01
2022-09-14T19:37:34.630Z,14.02
2022-09-14T19:40:09.851Z,14.04
2022-09-14T19:42:43.290Z,14.06
2022-09-14T19:45:16.770Z,14.08
2022-09-14T19:47:50.168Z,14.09
2022-09-14T19:50:23.196Z,14.10
2022-09-14T19:52:55.981Z,14.10
2022-09-14T19:55:28.705Z,14.10
2022-09-14T19:58:01.773Z,14.10
2022-09-14T20:00:36.613Z,14.10
2022-09-14T20:03:10.127Z,14.11
2022-09-14T20:05:43.212Z,14.14
2022-09-14T20:08:16.300Z,14.16
2022-09-14T20:10:49.998Z,14.19
2022-09-14T20:13:23.042Z,14.21
2022-09-14T20:15:55.810Z,14.24
2022-09-14T20:18:29.202Z,14.25
2022-09-14T20:21:02.189Z,14.28
2022-09-14T20:23:35.343Z,14.33
2022-09-14T20:26:10.639Z,14.38
2022-09-14T20:28:43.701Z,14.43
2022-09-14T20:31:17.660Z,14.47
2022-09-14T20:33:51.338Z,14.52
2022-09-14T20:36:26.992Z,14.57
2022-09-14T20:39:01.194Z,14.59
2022-09-14T20:41:36.291Z,14.61
2022-09-14T20:44:09.137Z,14.62
2022-09-14T20:46:45.558Z,14.61
2022-09-14T20:49:22.806Z,14.61
2022-09-14T20:51:57.099Z,14.59
2022-09-14T20:54:30.520Z,14.59
2022-09-14T20:57:04.636Z,14.59
2022-09-14T20:59:37.726Z,14.59
2022-09-14T21:02:11.828Z,14.59
2022-09-14T21:04:43.928Z,14.58
2022-09-14T21:07:17.941Z,14.58
2022-09-14T21:09:51.546Z,14.57
2022-09-14T21:12:24.403Z,14.56
2022-09-14T21:14:57.720Z,14.56
2022-09-14T21:17:30.604Z,14.56
2022-09-14T21:20:04.737Z,14.56
2022-09-14T21:22:37.469Z,14.55
2022-09-14T21:25:11.673Z,14.55
2022-09-14T21:27:44.344Z,14.54
2022-09-14T21:30:17.511Z,14.51
2022-09-14T21:32:51.062Z,14.48
2022-09-14T21:35:23.961Z,14.44
2022-09-14T21:37:56.846Z,14.43
2022-09-14T21:40:29.817Z,14.40
2022-09-14T21:43:02.771Z,14.37
2022-09-14T21:45:35.796Z,14.33
2022-09-14T21:48:08.508Z,14.28
2022-09-14T21:50:45.329Z,14.23
2022-09-14T21:53:15.839Z,14.16
2022-09-14T21:55:49.157Z,14.13
2022-09-14T21:58:21.917Z,14.09
2022-09-14T22:01:00.839Z,14.07
2022-09-14T22:03:35.472Z,14.04
2022-09-14T22:06:13.321Z,14.03
2022-09-14T22:08:47.281Z,14.00
2022-09-14T22:11:24.354Z,13.97
2022-09-14T22:13:59.566Z,13.97
2022-09-14T22:16:36.296Z,13.96
2022-09-14T22:19:14.218Z,13.94
2022-09-14T22:21:47.694Z,13.93
2022-09-14T22:24:24.507Z,13.93
2022-09-14T22:26:57.740Z,13.92
2022-09-14T22:29:32.119Z,13.89
2022-09-14T22:32:07.478Z,13.88
2022-09-14T22:34:41.932Z,13.90
2022-09-14T22:37:14.930Z,13.92
2022-09-14T22:39:47.807Z,13.92
2022-09-14T22:42:21.724Z,13.91
2022-09-14T22:44:54.671Z,13.91
2022-09-14T22:47:27.841Z,13.92
2022-09-14T22:50:00.565Z,13.94
2022-09-14T22:52:34.440Z,13.99
2022-09-14T22:55:08.546Z,13.99
2022-09-14T22:57:41.382Z,14.02
2022-09-14T23:00:15.849Z,14.04
2022-09-14T23:02:49.836Z,14.07
2022-09-14T23:05:23.000Z,14.11
2022-09-14T23:07:56.933Z,14.15
2022-09-14T23:10:31.583Z,14.18
2022-09-14T23:13:04.627Z,14.17
2022-09-14T23:15:41.890Z,14.18
2022-09-14T23:18:15.260Z,14.17
2022-09-14T23:20:49.885Z,14.18
2022-09-14T23:23:22.847Z,14.19
2022-09-14T23:25:55.589Z,14.22
2022-09-14T23:28:28.489Z,14.23
2022-09-14T23:31:01.875Z,14.26
2022-09-14T23:33:35.706Z,14.25
2022-09-14T23:36:09.361Z,14.19
2022-09-14T23:38:43.421Z,14.13
2022-09-14T23:41:18.368Z,14.08
2022-09-14T23:43:51.469Z,14.07
2022-09-14T23:46:25.442Z,14.10
2022-09-14T23:48:58.313Z,14.13
2022-09-14T23:51:31.041Z,14.14
2022-09-14T23:54:04.970Z,14.16
2022-09-14T23:56:41.310Z,14.18
2022-09-14T23:59:17.166Z,14.20
